24h
CUSTOMER SERVICE:
Saartelennuliinid: +372 58856336 (24/7)
Airport ticket info +372 6058887; +372 55603687

08.01.2019 hommikune Transaviabaltika lend KTB670 kell 07:00 (kohalik aeg) Tallinn - Kärdla väljalend ja KTB671 kell 07:45 Kärdla – Tallinn väljalend jääb ära. Lennu ära jäämise põhjustab ilmastikuolu Kärdla lennuväljal. Kõikidele reisijatele tagastatakse piletiraha või vormistatakse pilet hilisemale lennule. Lisainformatsioon 58856336. Informatsiooni vahetus: [email protected]

EEKA Kärdla lennuväli

FCEO32 EETN 080400 TAF EEKA 080400Z 0805/0811 17012KT 4000 BR OVC004

TEMPO 0805/0808 1200 RA BR OVC002 TEMPO 0808/0811 2000 SNRA BKN005 OVC010=

METAR EEKA 080350Z 16008KT 3200 -RA BR OVC003 02/02 Q1001=
Date: 
08/01/2019